sensor_id;sensor_type;location;lat;lon;timestamp;pressure;altitude;pressure_sealevel;temperature;humidity
38812;BME280;24553;51.640;-0.752;2023-07-22T00:01:21;100657.44;;;15.85;100.00
38812;BME280;24553;51.640;-0.752;2023-07-22T00:03:46;100663.75;;;15.91;100.00
38812;BME280;24553;51.640;-0.752;2023-07-22T00:06:11;100657.31;;;15.74;100.00
38812;BME280;24553;51.640;-0.752;2023-07-22T00:08:38;100657.38;;;15.67;100.00
38812;BME280;24553;51.640;-0.752;2023-07-22T00:11:06;100652.53;;;15.57;100.00
38812;BME280;24553;51.640;-0.752;2023-07-22T00:13:32;100646.72;;;15.60;100.00
38812;BME280;24553;51.640;-0.752;2023-07-22T00:15:58;100647.53;;;15.61;100.00
38812;BME280;24553;51.640;-0.752;2023-07-22T00:18:29;100641.84;;;15.57;100.00
38812;BME280;24553;51.640;-0.752;2023-07-22T00:20:56;100640.50;;;15.66;100.00
38812;BME280;24553;51.640;-0.752;2023-07-22T00:23:21;100633.56;;;15.84;100.00
38812;BME280;24553;51.640;-0.752;2023-07-22T00:25:47;100630.84;;;16.09;100.00
38812;BME280;24553;51.640;-0.752;2023-07-22T00:28:13;100628.00;;;16.22;100.00
38812;BME280;24553;51.640;-0.752;2023-07-22T00:30:38;100625.31;;;16.22;100.00
38812;BME280;24553;51.640;-0.752;2023-07-22T00:33:03;100628.06;;;16.16;100.00
38812;BME280;24553;51.640;-0.752;2023-07-22T00:35:29;100626.22;;;16.16;100.00
38812;BME280;24553;51.640;-0.752;2023-07-22T00:37:54;100627.56;;;16.07;100.00
38812;BME280;24553;51.640;-0.752;2023-07-22T00:40:19;100629.50;;;16.00;100.00
38812;BME280;24553;51.640;-0.752;2023-07-22T00:42:45;100618.50;;;15.89;100.00
38812;BME280;24553;51.640;-0.752;2023-07-22T00:45:10;100615.97;;;15.95;100.00
38812;BME280;24553;51.640;-0.752;2023-07-22T00:47:36;100615.16;;;15.94;100.00
38812;BME280;24553;51.640;-0.752;2023-07-22T00:50:06;100613.91;;;15.78;100.00
38812;BME280;24553;51.640;-0.752;2023-07-22T00:52:32;100610.88;;;15.93;100.00
38812;BME280;24553;51.640;-0.752;2023-07-22T00:54:58;100615.22;;;15.87;100.00
38812;BME280;24553;51.640;-0.752;2023-07-22T00:57:23;100612.84;;;15.79;100.00
38812;BME280;24553;51.640;-0.752;2023-07-22T00:59:49;100624.06;;;15.44;100.00
38812;BME280;24553;51.640;-0.752;2023-07-22T01:02:14;100625.66;;;15.27;100.00
38812;BME280;24553;51.640;-0.752;2023-07-22T01:04:40;100620.84;;;15.11;100.00
38812;BME280;24553;51.640;-0.752;2023-07-22T01:07:05;100619.47;;;15.01;100.00
38812;BME280;24553;51.640;-0.752;2023-07-22T01:09:41;100623.19;;;15.00;100.00
38812;BME280;24553;51.640;-0.752;2023-07-22T01:12:06;100608.66;;;15.21;100.00
38812;BME280;24553;51.640;-0.752;2023-07-22T01:14:36;100610.53;;;15.14;100.00
38812;BME280;24553;51.640;-0.752;2023-07-22T01:17:06;100605.50;;;15.31;100.00
38812;BME280;24553;51.640;-0.752;2023-07-22T01:19:32;100600.19;;;15.49;100.00
38812;BME280;24553;51.640;-0.752;2023-07-22T01:22:03;100595.81;;;15.55;100.00
38812;BME280;24553;51.640;-0.752;2023-07-22T01:24:30;100592.69;;;15.58;100.00
38812;BME280;24553;51.640;-0.752;2023-07-22T01:26:56;100584.56;;;15.72;100.00
38812;BME280;24553;51.640;-0.752;2023-07-22T01:29:22;100581.81;;;15.78;100.00
38812;BME280;24553;51.640;-0.752;2023-07-22T01:31:49;100579.75;;;15.80;100.00
38812;BME280;24553;51.640;-0.752;2023-07-22T01:34:15;100577.06;;;15.80;100.00
38812;BME280;24553;51.640;-0.752;2023-07-22T01:36:40;100570.47;;;15.83;100.00
38812;BME280;24553;51.640;-0.752;2023-07-22T01:39:06;100573.00;;;15.78;100.00
38812;BME280;24553;51.640;-0.752;2023-07-22T01:41:31;100570.16;;;15.73;100.00
38812;BME280;24553;51.640;-0.752;2023-07-22T01:43:56;100574.38;;;15.62;100.00
38812;BME280;24553;51.640;-0.752;2023-07-22T01:46:22;100575.19;;;15.62;100.00
38812;BME280;24553;51.640;-0.752;2023-07-22T01:48:47;100571.44;;;15.63;100.00
38812;BME280;24553;51.640;-0.752;2023-07-22T01:51:12;100567.59;;;15.59;100.00
38812;BME280;24553;51.640;-0.752;2023-07-22T01:53:38;100573.38;;;15.56;100.00
38812;BME280;24553;51.640;-0.752;2023-07-22T01:56:03;100572.81;;;15.54;100.00
38812;BME280;24553;51.640;-0.752;2023-07-22T01:58:30;100569.44;;;15.59;100.00
38812;BME280;24553;51.640;-0.752;2023-07-22T02:00:55;100563.88;;;15.60;100.00
38812;BME280;24553;51.640;-0.752;2023-07-22T02:03:21;100565.28;;;15.63;100.00
38812;BME280;24553;51.640;-0.752;2023-07-22T02:05:46;100568.13;;;15.68;100.00
38812;BME280;24553;51.640;-0.752;2023-07-22T02:08:11;100567.94;;;15.69;100.00
38812;BME280;24553;51.640;-0.752;2023-07-22T02:10:37;100568.31;;;15.73;100.00
38812;BME280;24553;51.640;-0.752;2023-07-22T02:13:02;100561.34;;;15.72;100.00
38812;BME280;24553;51.640;-0.752;2023-07-22T02:15:30;100557.81;;;15.72;100.00
38812;BME280;24553;51.640;-0.752;2023-07-22T02:17:55;100554.16;;;15.66;100.00
38812;BME280;24553;51.640;-0.752;2023-07-22T02:20:21;100551.28;;;15.67;100.00
38812;BME280;24553;51.640;-0.752;2023-07-22T02:22:47;100553.94;;;15.67;100.00
38812;BME280;24553;51.640;-0.752;2023-07-22T02:25:13;100551.72;;;15.64;100.00
38812;BME280;24553;51.640;-0.752;2023-07-22T02:27:40;100545.50;;;15.70;100.00
38812;BME280;24553;51.640;-0.752;2023-07-22T02:30:07;100553.44;;;15.77;100.00
38812;BME280;24553;51.640;-0.752;2023-07-22T02:32:38;100548.31;;;15.76;100.00
38812;BME280;24553;51.640;-0.752;2023-07-22T02:35:05;100553.94;;;15.49;100.00
38812;BME280;24553;51.640;-0.752;2023-07-22T02:37:31;100551.34;;;15.61;100.00
38812;BME280;24553;51.640;-0.752;2023-07-22T02:39:56;100548.22;;;15.64;100.00
38812;BME280;24553;51.640;-0.752;2023-07-22T02:42:21;100542.44;;;15.67;100.00
38812;BME280;24553;51.640;-0.752;2023-07-22T02:44:47;100546.75;;;15.68;100.00
38812;BME280;24553;51.640;-0.752;2023-07-22T02:47:12;100543.56;;;15.59;100.00
38812;BME280;24553;51.640;-0.752;2023-07-22T02:49:39;100548.06;;;15.59;100.00
38812;BME280;24553;51.640;-0.752;2023-07-22T02:52:05;100541.25;;;15.63;100.00
38812;BME280;24553;51.640;-0.752;2023-07-22T02:54:32;100546.31;;;15.71;100.00
38812;BME280;24553;51.640;-0.752;2023-07-22T02:56:57;100543.44;;;15.73;100.00
38812;BME280;24553;51.640;-0.752;2023-07-22T02:59:23;100535.63;;;15.71;100.00
38812;BME280;24553;51.640;-0.752;2023-07-22T03:01:49;100541.59;;;15.66;100.00
38812;BME280;24553;51.640;-0.752;2023-07-22T03:04:15;100537.69;;;15.69;100.00
38812;BME280;24553;51.640;-0.752;2023-07-22T03:06:40;100540.19;;;15.64;100.00
38812;BME280;24553;51.640;-0.752;2023-07-22T03:09:07;100537.50;;;15.64;100.00
38812;BME280;24553;51.640;-0.752;2023-07-22T03:11:32;100536.84;;;15.68;100.00
38812;BME280;24553;51.640;-0.752;2023-07-22T03:13:59;100528.84;;;15.68;100.00
38812;BME280;24553;51.640;-0.752;2023-07-22T03:16:25;100531.34;;;15.70;100.00
38812;BME280;24553;51.640;-0.752;2023-07-22T03:18:50;100533.09;;;15.76;100.00
38812;BME280;24553;51.640;-0.752;2023-07-22T03:21:15;100522.41;;;15.76;100.00
38812;BME280;24553;51.640;-0.752;2023-07-22T03:23:41;100525.19;;;15.69;100.00
38812;BME280;24553;51.640;-0.752;2023-07-22T03:26:06;100526.34;;;15.74;100.00
38812;BME280;24553;51.640;-0.752;2023-07-22T03:28:31;100522.03;;;15.73;100.00
38812;BME280;24553;51.640;-0.752;2023-07-22T03:30:57;100522.25;;;15.71;100.00
38812;BME280;24553;51.640;-0.752;2023-07-22T03:33:22;100526.13;;;15.75;100.00
38812;BME280;24553;51.640;-0.752;2023-07-22T03:35:47;100533.09;;;15.76;100.00
38812;BME280;24553;51.640;-0.752;2023-07-22T03:38:13;100529.16;;;15.79;100.00
38812;BME280;24553;51.640;-0.752;2023-07-22T03:40:38;100530.13;;;15.84;100.00
38812;BME280;24553;51.640;-0.752;2023-07-22T03:43:04;100528.50;;;15.83;100.00
38812;BME280;24553;51.640;-0.752;2023-07-22T03:45:29;100520.78;;;15.75;100.00
38812;BME280;24553;51.640;-0.752;2023-07-22T03:47:59;100517.16;;;15.69;100.00
38812;BME280;24553;51.640;-0.752;2023-07-22T03:50:25;100519.13;;;15.74;100.00
38812;BME280;24553;51.640;-0.752;2023-07-22T03:52:50;100516.28;;;15.51;100.00
38812;BME280;24553;51.640;-0.752;2023-07-22T03:55:15;100515.34;;;15.45;100.00
38812;BME280;24553;51.640;-0.752;2023-07-22T03:57:41;100517.41;;;15.43;100.00
38812;BME280;24553;51.640;-0.752;2023-07-22T04:00:07;100513.91;;;15.42;100.00
38812;BME280;24553;51.640;-0.752;2023-07-22T04:02:35;100513.31;;;15.40;100.00
38812;BME280;24553;51.640;-0.752;2023-07-22T04:05:01;100510.28;;;15.37;100.00
38812;BME280;24553;51.640;-0.752;2023-07-22T04:07:26;100514.72;;;15.24;100.00
38812;BME280;24553;51.640;-0.752;2023-07-22T04:09:52;100511.00;;;15.25;100.00
38812;BME280;24553;51.640;-0.752;2023-07-22T04:12:17;100508.16;;;15.20;100.00
38812;BME280;24553;51.640;-0.752;2023-07-22T04:14:42;100514.28;;;15.27;100.00
38812;BME280;24553;51.640;-0.752;2023-07-22T04:17:08;100513.47;;;15.27;100.00
38812;BME280;24553;51.640;-0.752;2023-07-22T04:19:33;100515.53;;;15.25;100.00
38812;BME280;24553;51.640;-0.752;2023-07-22T04:21:58;100507.50;;;15.25;100.00
38812;BME280;24553;51.640;-0.752;2023-07-22T04:24:29;100507.91;;;15.29;100.00
38812;BME280;24553;51.640;-0.752;2023-07-22T04:26:55;100504.34;;;15.35;100.00
38812;BME280;24553;51.640;-0.752;2023-07-22T04:29:21;100499.44;;;15.50;100.00
38812;BME280;24553;51.640;-0.752;2023-07-22T04:31:46;100501.00;;;15.58;100.00
38812;BME280;24553;51.640;-0.752;2023-07-22T04:34:11;100494.56;;;15.47;100.00
38812;BME280;24553;51.640;-0.752;2023-07-22T04:36:38;100502.78;;;15.45;100.00
38812;BME280;24553;51.640;-0.752;2023-07-22T04:39:03;100505.75;;;15.56;100.00
38812;BME280;24553;51.640;-0.752;2023-07-22T04:41:30;100507.81;;;15.54;100.00
38812;BME280;24553;51.640;-0.752;2023-07-22T04:43:57;100513.16;;;15.54;100.00
38812;BME280;24553;51.640;-0.752;2023-07-22T04:46:24;100506.94;;;15.60;100.00
38812;BME280;24553;51.640;-0.752;2023-07-22T04:48:49;100506.81;;;15.55;100.00
38812;BME280;24553;51.640;-0.752;2023-07-22T04:51:14;100497.28;;;15.59;100.00
38812;BME280;24553;51.640;-0.752;2023-07-22T04:53:40;100494.75;;;15.64;100.00
38812;BME280;24553;51.640;-0.752;2023-07-22T04:56:05;100495.81;;;15.63;100.00
38812;BME280;24553;51.640;-0.752;2023-07-22T04:58:30;100487.19;;;15.61;100.00
38812;BME280;24553;51.640;-0.752;2023-07-22T05:00:57;100483.13;;;15.58;100.00
38812;BME280;24553;51.640;-0.752;2023-07-22T05:03:23;100479.03;;;15.56;100.00
38812;BME280;24553;51.640;-0.752;2023-07-22T05:05:50;100477.41;;;15.55;100.00
38812;BME280;24553;51.640;-0.752;2023-07-22T05:08:15;100482.75;;;15.55;100.00
38812;BME280;24553;51.640;-0.752;2023-07-22T05:10:41;100478.66;;;15.52;100.00
38812;BME280;24553;51.640;-0.752;2023-07-22T05:13:06;100480.69;;;15.57;100.00
38812;BME280;24553;51.640;-0.752;2023-07-22T05:15:31;100480.22;;;15.60;100.00
38812;BME280;24553;51.640;-0.752;2023-07-22T05:17:57;100473.22;;;15.59;100.00
38812;BME280;24553;51.640;-0.752;2023-07-22T05:20:22;100480.59;;;15.63;100.00
38812;BME280;24553;51.640;-0.752;2023-07-22T05:22:48;100474.16;;;15.71;100.00
38812;BME280;24553;51.640;-0.752;2023-07-22T05:25:13;100477.56;;;15.78;100.00
38812;BME280;24553;51.640;-0.752;2023-07-22T05:27:40;100477.56;;;15.78;100.00
38812;BME280;24553;51.640;-0.752;2023-07-22T05:30:06;100476.50;;;15.79;100.00
38812;BME280;24553;51.640;-0.752;2023-07-22T05:32:31;100478.00;;;15.75;100.00
38812;BME280;24553;51.640;-0.752;2023-07-22T05:34:57;100467.06;;;15.77;100.00
38812;BME280;24553;51.640;-0.752;2023-07-22T05:37:23;100473.94;;;15.73;100.00
38812;BME280;24553;51.640;-0.752;2023-07-22T05:39:48;100477.56;;;15.78;100.00
38812;BME280;24553;51.640;-0.752;2023-07-22T05:42:14;100474.22;;;15.83;100.00
38812;BME280;24553;51.640;-0.752;2023-07-22T05:44:39;100467.34;;;15.87;100.00
38812;BME280;24553;51.640;-0.752;2023-07-22T05:47:05;100471.44;;;15.89;100.00
38812;BME280;24553;51.640;-0.752;2023-07-22T05:49:30;100469.50;;;15.97;100.00
38812;BME280;24553;51.640;-0.752;2023-07-22T05:51:56;100474.06;;;16.08;100.00
38812;BME280;24553;51.640;-0.752;2023-07-22T05:54:21;100472.66;;;16.05;100.00
38812;BME280;24553;51.640;-0.752;2023-07-22T05:56:46;100465.97;;;16.14;100.00
38812;BME280;24553;51.640;-0.752;2023-07-22T05:59:12;100465.75;;;16.16;100.00
38812;BME280;24553;51.640;-0.752;2023-07-22T06:01:37;100459.59;;;16.27;100.00
38812;BME280;24553;51.640;-0.752;2023-07-22T06:04:04;100467.06;;;16.37;100.00
38812;BME280;24553;51.640;-0.752;2023-07-22T06:06:29;100463.56;;;16.36;100.00
38812;BME280;24553;51.640;-0.752;2023-07-22T06:08:54;100460.56;;;16.45;100.00
38812;BME280;24553;51.640;-0.752;2023-07-22T06:11:20;100445.78;;;16.54;100.00
38812;BME280;24553;51.640;-0.752;2023-07-22T06:13:45;100450.81;;;16.62;100.00
38812;BME280;24553;51.640;-0.752;2023-07-22T06:16:11;100448.84;;;16.57;100.00
38812;BME280;24553;51.640;-0.752;2023-07-22T06:18:36;100435.78;;;16.49;100.00
38812;BME280;24553;51.640;-0.752;2023-07-22T06:21:02;100443.13;;;16.54;100.00
38812;BME280;24553;51.640;-0.752;2023-07-22T06:23:27;100450.69;;;16.45;100.00
38812;BME280;24553;51.640;-0.752;2023-07-22T06:25:52;100447.66;;;16.53;100.00
38812;BME280;24553;51.640;-0.752;2023-07-22T06:28:18;100437.88;;;16.59;100.00
38812;BME280;24553;51.640;-0.752;2023-07-22T06:30:43;100440.31;;;16.72;100.00
38812;BME280;24553;51.640;-0.752;2023-07-22T06:33:09;100450.13;;;16.55;100.00
38812;BME280;24553;51.640;-0.752;2023-07-22T06:35:34;100451.50;;;16.69;100.00
38812;BME280;24553;51.640;-0.752;2023-07-22T06:37:59;100438.72;;;16.71;100.00
38812;BME280;24553;51.640;-0.752;2023-07-22T06:40:25;100433.13;;;16.73;100.00
38812;BME280;24553;51.640;-0.752;2023-07-22T06:42:50;100441.66;;;16.82;100.00
38812;BME280;24553;51.640;-0.752;2023-07-22T06:45:16;100433.03;;;16.91;100.00
38812;BME280;24553;51.640;-0.752;2023-07-22T06:47:41;100419.88;;;17.02;100.00
38812;BME280;24553;51.640;-0.752;2023-07-22T06:50:07;100424.88;;;17.10;100.00
38812;BME280;24553;51.640;-0.752;2023-07-22T06:52:32;100416.44;;;17.30;100.00
38812;BME280;24553;51.640;-0.752;2023-07-22T06:54:58;100416.88;;;17.38;100.00
38812;BME280;24553;51.640;-0.752;2023-07-22T06:57:23;100414.94;;;17.62;100.00
38812;BME280;24553;51.640;-0.752;2023-07-22T06:59:52;100407.38;;;17.59;100.00
38812;BME280;24553;51.640;-0.752;2023-07-22T07:02:18;100409.63;;;17.51;100.00
38812;BME280;24553;51.640;-0.752;2023-07-22T07:04:44;100405.66;;;17.53;100.00
38812;BME280;24553;51.640;-0.752;2023-07-22T07:07:10;100407.75;;;17.51;100.00
38812;BME280;24553;51.640;-0.752;2023-07-22T07:09:36;100412.22;;;17.46;100.00
38812;BME280;24553;51.640;-0.752;2023-07-22T07:12:02;100420.69;;;17.54;100.00
38812;BME280;24553;51.640;-0.752;2023-07-22T07:14:27;100417.56;;;17.46;100.00
38812;BME280;24553;51.640;-0.752;2023-07-22T07:16:53;100413.13;;;17.51;100.00
38812;BME280;24553;51.640;-0.752;2023-07-22T07:19:18;100411.84;;;17.42;100.00
38812;BME280;24553;51.640;-0.752;2023-07-22T07:21:44;100406.25;;;17.43;100.00
38812;BME280;24553;51.640;-0.752;2023-07-22T07:24:09;100403.25;;;17.40;100.00
38812;BME280;24553;51.640;-0.752;2023-07-22T07:26:34;100407.66;;;17.46;100.00
38812;BME280;24553;51.640;-0.752;2023-07-22T07:29:00;100399.22;;;17.54;100.00
38812;BME280;24553;51.640;-0.752;2023-07-22T07:31:25;100397.97;;;17.85;100.00
38812;BME280;24553;51.640;-0.752;2023-07-22T07:33:50;100407.44;;;17.76;100.00
38812;BME280;24553;51.640;-0.752;2023-07-22T07:36:16;100393.66;;;17.73;100.00
38812;BME280;24553;51.640;-0.752;2023-07-22T07:38:41;100402.03;;;17.88;100.00
38812;BME280;24553;51.640;-0.752;2023-07-22T07:41:07;100408.16;;;18.00;100.00
38812;BME280;24553;51.640;-0.752;2023-07-22T07:43:37;100395.53;;;18.01;100.00
38812;BME280;24553;51.640;-0.752;2023-07-22T07:46:20;100401.66;;;18.13;100.00
38812;BME280;24553;51.640;-0.752;2023-07-22T07:48:58;100393.94;;;18.17;100.00
38812;BME280;24553;51.640;-0.752;2023-07-22T07:51:28;100397.50;;;18.22;100.00
38812;BME280;24553;51.640;-0.752;2023-07-22T07:53:55;100398.25;;;18.35;100.00
38812;BME280;24553;51.640;-0.752;2023-07-22T07:56:21;100385.63;;;18.52;100.00
38812;BME280;24553;51.640;-0.752;2023-07-22T07:58:48;100383.41;;;18.66;100.00
38812;BME280;24553;51.640;-0.752;2023-07-22T08:01:14;100383.75;;;18.52;100.00
38812;BME280;24553;51.640;-0.752;2023-07-22T08:03:41;100378.03;;;18.66;100.00
38812;BME280;24553;51.640;-0.752;2023-07-22T08:06:08;100383.09;;;18.79;100.00
38812;BME280;24553;51.640;-0.752;2023-07-22T08:08:33;100382.81;;;18.98;100.00
38812;BME280;24553;51.640;-0.752;2023-07-22T08:11:04;100379.50;;;19.12;100.00
38812;BME280;24553;51.640;-0.752;2023-07-22T08:13:30;100379.38;;;19.24;100.00
38812;BME280;24553;51.640;-0.752;2023-07-22T08:16:03;100378.88;;;19.27;100.00
38812;BME280;24553;51.640;-0.752;2023-07-22T08:18:29;100380.31;;;19.13;100.00
38812;BME280;24553;51.640;-0.752;2023-07-22T08:20:55;100376.31;;;19.15;100.00
38812;BME280;24553;51.640;-0.752;2023-07-22T08:23:22;100385.50;;;19.42;100.00
38812;BME280;24553;51.640;-0.752;2023-07-22T08:25:47;100374.59;;;19.53;100.00
38812;BME280;24553;51.640;-0.752;2023-07-22T08:28:14;100375.38;;;19.54;100.00
38812;BME280;24553;51.640;-0.752;2023-07-22T08:30:39;100375.56;;;19.69;100.00
38812;BME280;24553;51.640;-0.752;2023-07-22T08:33:06;100375.56;;;19.69;100.00
38812;BME280;24553;51.640;-0.752;2023-07-22T08:35:34;100367.09;;;19.55;100.00
38812;BME280;24553;51.640;-0.752;2023-07-22T08:37:59;100364.03;;;19.47;100.00
38812;BME280;24553;51.640;-0.752;2023-07-22T08:40:24;100365.31;;;19.39;100.00
38812;BME280;24553;51.640;-0.752;2023-07-22T08:42:50;100363.78;;;19.48;100.00
38812;BME280;24553;51.640;-0.752;2023-07-22T08:45:16;100358.16;;;19.50;100.00
38812;BME280;24553;51.640;-0.752;2023-07-22T08:47:46;100367.44;;;19.64;100.00
38812;BME280;24553;51.640;-0.752;2023-07-22T08:50:15;100352.84;;;19.55;100.00
38812;BME280;24553;51.640;-0.752;2023-07-22T08:52:41;100352.75;;;19.72;100.00
38812;BME280;24553;51.640;-0.752;2023-07-22T08:55:08;100359.25;;;19.76;100.00
38812;BME280;24553;51.640;-0.752;2023-07-22T08:57:36;100351.47;;;19.79;100.00
38812;BME280;24553;51.640;-0.752;2023-07-22T09:00:02;100349.63;;;19.85;100.00
38812;BME280;24553;51.640;-0.752;2023-07-22T09:02:32;100352.13;;;19.92;100.00
38812;BME280;24553;51.640;-0.752;2023-07-22T09:04:57;100342.44;;;19.91;100.00
38812;BME280;24553;51.640;-0.752;2023-07-22T09:07:24;100344.63;;;19.94;100.00
38812;BME280;24553;51.640;-0.752;2023-07-22T09:09:50;100345.19;;;19.96;100.00
38812;BME280;24553;51.640;-0.752;2023-07-22T09:12:17;100336.59;;;19.99;100.00
38812;BME280;24553;51.640;-0.752;2023-07-22T09:14:43;100327.25;;;20.12;100.00
38812;BME280;24553;51.640;-0.752;2023-07-22T09:17:10;100322.13;;;20.10;100.00
38812;BME280;24553;51.640;-0.752;2023-07-22T09:19:35;100334.34;;;20.23;100.00
38812;BME280;24553;51.640;-0.752;2023-07-22T09:22:01;100316.22;;;20.13;100.00
38812;BME280;24553;51.640;-0.752;2023-07-22T09:24:26;100321.88;;;20.12;100.00
38812;BME280;24553;51.640;-0.752;2023-07-22T09:26:57;100323.22;;;20.09;100.00
38812;BME280;24553;51.640;-0.752;2023-07-22T09:29:34;100313.59;;;20.23;100.00
38812;BME280;24553;51.640;-0.752;2023-07-22T09:32:00;100319.13;;;20.44;100.00
38812;BME280;24553;51.640;-0.752;2023-07-22T09:34:25;100322.28;;;20.31;100.00
38812;BME280;24553;51.640;-0.752;2023-07-22T09:36:56;100327.97;;;20.39;100.00
38812;BME280;24553;51.640;-0.752;2023-07-22T09:39:25;100320.81;;;20.13;100.00
38812;BME280;24553;51.640;-0.752;2023-07-22T09:41:51;100324.78;;;20.05;100.00
38812;BME280;24553;51.640;-0.752;2023-07-22T09:44:19;100320.50;;;20.09;100.00
38812;BME280;24553;51.640;-0.752;2023-07-22T09:46:49;100318.91;;;20.13;100.00
38812;BME280;24553;51.640;-0.752;2023-07-22T09:49:16;100320.34;;;20.26;100.00
38812;BME280;24553;51.640;-0.752;2023-07-22T09:51:42;100318.38;;;20.11;100.00
38812;BME280;24553;51.640;-0.752;2023-07-22T09:54:08;100317.47;;;20.00;100.00
38812;BME280;24553;51.640;-0.752;2023-07-22T09:56:48;100311.16;;;20.17;100.00
38812;BME280;24553;51.640;-0.752;2023-07-22T09:59:14;100321.25;;;20.42;100.00
38812;BME280;24553;51.640;-0.752;2023-07-22T10:01:43;100321.78;;;20.39;100.00
38812;BME280;24553;51.640;-0.752;2023-07-22T10:04:12;100311.59;;;20.46;100.00
38812;BME280;24553;51.640;-0.752;2023-07-22T10:06:38;100315.34;;;20.40;100.00
38812;BME280;24553;51.640;-0.752;2023-07-22T10:09:05;100301.84;;;20.35;100.00
38812;BME280;24553;51.640;-0.752;2023-07-22T10:11:34;100306.81;;;20.16;100.00
38812;BME280;24553;51.640;-0.752;2023-07-22T10:14:01;100306.97;;;19.99;100.00
38812;BME280;24553;51.640;-0.752;2023-07-22T10:16:27;100307.28;;;20.02;100.00
38812;BME280;24553;51.640;-0.752;2023-07-22T10:18:53;100302.75;;;20.13;100.00
38812;BME280;24553;51.640;-0.752;2023-07-22T10:21:19;100311.81;;;19.97;100.00
38812;BME280;24553;51.640;-0.752;2023-07-22T10:23:47;100310.19;;;19.96;100.00
38812;BME280;24553;51.640;-0.752;2023-07-22T10:26:15;100309.19;;;20.07;100.00
38812;BME280;24553;51.640;-0.752;2023-07-22T10:28:41;100302.16;;;20.01;100.00
38812;BME280;24553;51.640;-0.752;2023-07-22T10:31:07;100302.13;;;19.96;100.00
38812;BME280;24553;51.640;-0.752;2023-07-22T10:33:34;100301.28;;;19.95;100.00
38812;BME280;24553;51.640;-0.752;2023-07-22T10:38:28;100304.38;;;19.77;100.00
38812;BME280;24553;51.640;-0.752;2023-07-22T10:40:54;100307.28;;;19.70;100.00
38812;BME280;24553;51.640;-0.752;2023-07-22T10:43:31;100311.75;;;19.59;100.00
38812;BME280;24553;51.640;-0.752;2023-07-22T10:45:58;100305.31;;;19.66;100.00
38812;BME280;24553;51.640;-0.752;2023-07-22T10:48:28;100307.28;;;19.70;100.00
38812;BME280;24553;51.640;-0.752;2023-07-22T10:51:07;100306.91;;;19.61;100.00
38812;BME280;24553;51.640;-0.752;2023-07-22T10:53:40;100294.94;;;19.74;100.00
38812;BME280;24553;51.640;-0.752;2023-07-22T10:56:35;100306.13;;;19.66;100.00
38812;BME280;24553;51.640;-0.752;2023-07-22T10:59:00;100308.38;;;19.47;100.00
38812;BME280;24553;51.640;-0.752;2023-07-22T11:12:03;100330.03;;;18.69;100.00
38812;BME280;24553;51.640;-0.752;2023-07-22T11:14:34;100330.13;;;18.58;100.00
38812;BME280;24553;51.640;-0.752;2023-07-22T11:17:02;100328.09;;;18.65;100.00
38812;BME280;24553;51.640;-0.752;2023-07-22T11:19:32;100331.06;;;18.46;100.00
38812;BME280;24553;51.640;-0.752;2023-07-22T11:22:00;100334.06;;;18.50;100.00
38812;BME280;24553;51.640;-0.752;2023-07-22T11:24:26;100332.94;;;18.29;100.00
38812;BME280;24553;51.640;-0.752;2023-07-22T11:26:52;100334.66;;;18.18;100.00
38812;BME280;24553;51.640;-0.752;2023-07-22T11:29:18;100336.38;;;18.07;100.00
38812;BME280;24553;51.640;-0.752;2023-07-22T11:31:45;100322.13;;;18.07;100.00
38812;BME280;24553;51.640;-0.752;2023-07-22T11:34:12;100324.81;;;17.90;100.00
38812;BME280;24553;51.640;-0.752;2023-07-22T11:36:38;100317.84;;;17.89;100.00
38812;BME280;24553;51.640;-0.752;2023-07-22T11:39:05;100320.25;;;17.74;100.00
38812;BME280;24553;51.640;-0.752;2023-07-22T11:41:35;100311.81;;;17.82;100.00
38812;BME280;24553;51.640;-0.752;2023-07-22T11:44:01;100313.81;;;17.75;100.00
38812;BME280;24553;51.640;-0.752;2023-07-22T11:46:28;100310.81;;;17.71;100.00
38812;BME280;24553;51.640;-0.752;2023-07-22T11:48:54;100289.81;;;17.68;100.00
38812;BME280;24553;51.640;-0.752;2023-07-22T11:51:22;100290.16;;;17.72;100.00
38812;BME280;24553;51.640;-0.752;2023-07-22T11:53:49;100291.56;;;17.74;100.00
38812;BME280;24553;51.640;-0.752;2023-07-22T11:56:22;100293.38;;;17.85;100.00
38812;BME280;24553;51.640;-0.752;2023-07-22T11:58:51;100286.88;;;17.98;100.00
38812;BME280;24553;51.640;-0.752;2023-07-22T12:01:17;100279.88;;;17.80;100.00
38812;BME280;24553;51.640;-0.752;2023-07-22T12:03:42;100276.28;;;17.75;100.00
38812;BME280;24553;51.640;-0.752;2023-07-22T12:06:08;100278.38;;;17.73;100.00
38812;BME280;24553;51.640;-0.752;2023-07-22T12:08:34;100271.88;;;17.69;100.00
38812;BME280;24553;51.640;-0.752;2023-07-22T12:11:01;100268.47;;;17.56;100.00
38812;BME280;24553;51.640;-0.752;2023-07-22T12:13:26;100273.00;;;17.56;100.00
38812;BME280;24553;51.640;-0.752;2023-07-22T12:16:05;100266.44;;;17.63;100.00
38812;BME280;24553;51.640;-0.752;2023-07-22T12:18:47;100268.47;;;17.56;100.00
38812;BME280;24553;51.640;-0.752;2023-07-22T12:21:13;100261.78;;;17.42;100.00
38812;BME280;24553;51.640;-0.752;2023-07-22T12:23:39;100269.59;;;17.43;100.00
38812;BME280;24553;51.640;-0.752;2023-07-22T12:26:05;100267.53;;;17.34;100.00
38812;BME280;24553;51.640;-0.752;2023-07-22T12:28:31;100271.97;;;17.28;100.00
38812;BME280;24553;51.640;-0.752;2023-07-22T12:30:56;100269.25;;;17.40;100.00
38812;BME280;24553;51.640;-0.752;2023-07-22T12:33:25;100254.47;;;17.54;100.00
38812;BME280;24553;51.640;-0.752;2023-07-22T12:35:51;100255.72;;;17.63;100.00
38812;BME280;24553;51.640;-0.752;2023-07-22T12:38:17;100252.03;;;17.53;100.00
38812;BME280;24553;51.640;-0.752;2023-07-22T12:40:42;100250.09;;;17.48;100.00